createdAt,value
2018-06-02T00:02:00.139Z,18.60
2018-06-02T00:04:27.261Z,18.70
2018-06-02T00:06:54.424Z,18.70
2018-06-02T00:09:21.568Z,18.60
2018-06-02T00:11:48.007Z,18.60
2018-06-02T00:14:14.404Z,18.60
2018-06-02T00:16:40.864Z,18.70
2018-06-02T00:19:07.277Z,18.70
2018-06-02T00:21:33.780Z,18.70
2018-06-02T00:24:00.167Z,18.70
2018-06-02T00:26:26.584Z,18.70
2018-06-02T00:28:53.003Z,18.70
2018-06-02T00:31:19.397Z,18.70
2018-06-02T00:33:45.799Z,18.60
2018-06-02T00:36:12.957Z,18.60
2018-06-02T00:38:39.358Z,18.60
2018-06-02T00:41:05.769Z,18.60
2018-06-02T00:43:32.171Z,18.50
2018-06-02T00:45:59.308Z,18.50
2018-06-02T00:48:26.483Z,18.50
2018-06-02T00:50:52.891Z,18.50
2018-06-02T00:53:20.029Z,18.40
2018-06-02T00:55:46.446Z,18.40
2018-06-02T00:58:14.348Z,18.40
2018-06-02T01:00:41.511Z,18.40
2018-06-02T01:03:07.922Z,18.50
2018-06-02T01:05:34.308Z,18.50
2018-06-02T01:08:00.714Z,18.60
2018-06-02T01:10:27.127Z,18.50
2018-06-02T01:12:54.314Z,18.40
2018-06-02T01:15:20.725Z,18.40
2018-06-02T01:17:47.184Z,18.40
2018-06-02T01:20:13.748Z,18.30
2018-06-02T01:22:40.161Z,18.30
2018-06-02T01:25:06.575Z,18.30
2018-06-02T01:27:32.968Z,18.30
2018-06-02T01:30:00.152Z,18.40
2018-06-02T01:32:26.546Z,18.40
2018-06-02T01:34:52.952Z,18.40
2018-06-02T01:37:19.359Z,18.40
2018-06-02T01:39:45.769Z,18.40
2018-06-02T01:42:12.235Z,18.30
2018-06-02T01:44:38.624Z,18.20
2018-06-02T01:47:05.763Z,18.10
2018-06-02T01:49:32.209Z,18.00
2018-06-02T01:51:59.349Z,17.90
2018-06-02T01:54:25.745Z,17.90
2018-06-02T01:56:52.152Z,17.80
2018-06-02T01:59:18.547Z,17.80
2018-06-02T02:01:44.941Z,17.90
2018-06-02T02:04:11.340Z,17.90
2018-06-02T02:06:37.736Z,17.90
2018-06-02T02:09:05.043Z,17.90
2018-06-02T02:11:31.488Z,17.90
2018-06-02T02:13:58.470Z,17.90
2018-06-02T02:16:25.649Z,17.90
2018-06-02T02:18:52.039Z,17.80
2018-06-02T02:21:18.449Z,17.80
2018-06-02T02:23:44.913Z,17.70
2018-06-02T02:26:12.092Z,17.60
2018-06-02T02:28:38.542Z,17.60
2018-06-02T02:31:04.951Z,17.60
2018-06-02T02:33:32.103Z,17.80
2018-06-02T02:35:59.245Z,17.70
2018-06-02T02:38:26.385Z,17.80
2018-06-02T02:40:52.806Z,17.80
2018-06-02T02:43:19.209Z,17.80
2018-06-02T02:45:45.594Z,17.80
2018-06-02T02:48:12.772Z,17.80
2018-06-02T02:50:39.192Z,17.80
2018-06-02T02:53:05.599Z,17.80
2018-06-02T02:55:31.988Z,17.80
2018-06-02T02:57:58.376Z,17.80
2018-06-02T03:00:25.497Z,17.70
2018-06-02T03:02:51.903Z,17.70
2018-06-02T03:05:18.294Z,17.60
2018-06-02T03:07:45.427Z,17.70
2018-06-02T03:10:11.830Z,17.70
2018-06-02T03:12:38.242Z,17.60
2018-06-02T03:15:05.430Z,17.60
2018-06-02T03:17:33.322Z,17.60
2018-06-02T03:20:00.500Z,17.60
2018-06-02T03:22:26.934Z,17.60
2018-06-02T03:24:53.339Z,17.50
2018-06-02T03:27:20.482Z,17.50
2018-06-02T03:29:46.898Z,17.50
2018-06-02T03:32:13.320Z,17.60
2018-06-02T03:34:39.787Z,17.60
2018-06-02T03:37:06.922Z,17.50
2018-06-02T03:39:33.302Z,17.50
2018-06-02T03:41:59.689Z,17.50
2018-06-02T03:44:26.099Z,17.50
2018-06-02T03:46:52.498Z,17.50
2018-06-02T03:49:18.919Z,17.50
2018-06-02T03:51:45.348Z,17.50
2018-06-02T03:54:12.498Z,17.50
2018-06-02T03:56:38.904Z,17.50
2018-06-02T03:59:05.324Z,17.50
2018-06-02T04:01:31.710Z,17.50
2018-06-02T04:03:58.135Z,17.40
2018-06-02T04:06:24.529Z,17.60
2018-06-02T04:08:50.911Z,17.60
2018-06-02T04:11:17.301Z,17.50
2018-06-02T04:13:43.697Z,17.60
2018-06-02T04:16:10.082Z,17.60
2018-06-02T04:18:37.203Z,17.60
2018-06-02T04:21:03.588Z,17.60
2018-06-02T04:23:29.985Z,17.60
2018-06-02T04:25:57.128Z,17.80
2018-06-02T04:28:23.535Z,17.70
2018-06-02T04:30:49.926Z,17.80
2018-06-02T04:33:16.344Z,17.80
2018-06-02T04:35:43.483Z,17.80
2018-06-02T04:38:12.725Z,17.90
2018-06-02T04:40:39.145Z,17.80
2018-06-02T04:43:05.577Z,17.90
2018-06-02T04:45:32.213Z,18.00
2018-06-02T04:47:58.608Z,18.00
2018-06-02T04:50:25.017Z,18.10
2018-06-02T04:52:51.436Z,18.10
2018-06-02T04:55:17.850Z,18.20
2018-06-02T04:57:44.250Z,18.30
2018-06-02T05:00:11.389Z,18.70
2018-06-02T05:02:38.551Z,18.70
2018-06-02T05:05:05.734Z,18.80
2018-06-02T05:07:32.154Z,18.70
2018-06-02T05:09:58.553Z,19.00
2018-06-02T05:12:26.434Z,19.30
2018-06-02T05:14:53.570Z,19.30
2018-06-02T05:17:19.953Z,19.30
2018-06-02T05:19:46.342Z,19.50
2018-06-02T05:22:12.803Z,19.40
2018-06-02T05:24:39.235Z,19.50
2018-06-02T05:27:05.658Z,19.80
2018-06-02T05:29:32.071Z,20.10
2018-06-02T05:31:58.460Z,20.50
2018-06-02T05:34:24.879Z,21.00
2018-06-02T05:36:51.291Z,21.50
2018-06-02T05:39:17.869Z,21.80
2018-06-02T05:41:44.304Z,22.20
2018-06-02T05:44:10.703Z,22.60
2018-06-02T05:46:37.104Z,23.30
2018-06-02T05:49:03.503Z,23.30
2018-06-02T05:51:29.905Z,23.40
2018-06-02T05:53:56.377Z,23.70
2018-06-02T05:56:22.814Z,23.90
2018-06-02T05:58:49.213Z,24.20
2018-06-02T06:01:15.614Z,24.30
2018-06-02T06:03:42.770Z,24.50
2018-06-02T06:06:09.240Z,24.50
2018-06-02T06:08:35.648Z,24.40
2018-06-02T06:11:02.114Z,24.50
2018-06-02T06:13:28.533Z,24.40
2018-06-02T06:15:54.953Z,24.00
2018-06-02T06:18:22.289Z,23.90
2018-06-02T06:20:49.428Z,23.50
2018-06-02T06:23:16.585Z,23.50
2018-06-02T06:25:48.741Z,23.60
2018-06-02T06:28:15.141Z,23.60
2018-06-02T06:30:41.556Z,23.70
2018-06-02T06:33:08.022Z,23.70
2018-06-02T06:35:34.404Z,23.70
2018-06-02T06:38:00.804Z,23.80
2018-06-02T06:40:28.710Z,23.70
2018-06-02T06:42:55.119Z,23.70
2018-06-02T06:45:22.285Z,23.50
2018-06-02T06:47:48.714Z,23.50
2018-06-02T06:50:15.123Z,23.60
2018-06-02T06:52:42.286Z,23.60
2018-06-02T06:55:08.671Z,23.50
2018-06-02T06:57:35.086Z,23.70
2018-06-02T07:00:01.519Z,23.60
2018-06-02T07:02:27.905Z,23.80
2018-06-02T07:04:54.286Z,23.80
2018-06-02T07:07:20.685Z,23.80
2018-06-02T07:09:47.819Z,23.70
2018-06-02T07:12:14.253Z,23.70
2018-06-02T07:14:42.144Z,23.50
2018-06-02T07:17:08.538Z,23.50
2018-06-02T07:19:36.424Z,23.60
2018-06-02T07:22:03.598Z,23.80
2018-06-02T07:24:29.990Z,23.70
2018-06-02T07:26:57.872Z,23.70
2018-06-02T07:29:24.247Z,23.70
2018-06-02T07:31:50.634Z,23.70
2018-06-02T07:34:17.014Z,23.70
2018-06-02T07:36:43.399Z,23.60
2018-06-02T07:39:10.579Z,23.80
2018-06-02T07:41:37.006Z,23.70
2018-06-02T07:44:04.181Z,23.70
2018-06-02T07:46:30.586Z,23.60
2018-06-02T07:48:57.716Z,23.80
2018-06-02T07:51:24.186Z,23.70
2018-06-02T07:53:50.589Z,23.70
2018-06-02T07:56:17.768Z,23.80
2018-06-02T07:58:44.178Z,23.80
2018-06-02T08:01:11.345Z,23.70
2018-06-02T08:03:37.743Z,23.60
2018-06-02T08:06:04.163Z,23.80
2018-06-02T08:08:30.600Z,23.80
2018-06-02T08:10:57.014Z,23.80
2018-06-02T08:13:23.474Z,23.80
2018-06-02T08:15:50.642Z,23.90
2018-06-02T08:18:17.813Z,23.80
2018-06-02T08:20:44.224Z,23.80
2018-06-02T08:23:11.423Z,23.60
2018-06-02T08:25:37.864Z,23.60
2018-06-02T08:28:04.274Z,23.60
2018-06-02T08:30:31.522Z,23.80
2018-06-02T08:32:57.946Z,23.80
2018-06-02T08:35:24.381Z,23.80
2018-06-02T08:37:50.771Z,24.00
2018-06-02T08:40:17.195Z,24.00
2018-06-02T08:42:44.362Z,24.20
2018-06-02T08:45:10.749Z,24.20
2018-06-02T08:47:37.148Z,24.30
2018-06-02T08:50:04.291Z,24.40
2018-06-02T08:52:31.444Z,24.50
2018-06-02T08:54:58.595Z,24.70
2018-06-02T08:57:25.745Z,24.80
2018-06-02T08:59:52.880Z,24.70
2018-06-02T09:02:20.040Z,24.70
2018-06-02T09:04:47.205Z,24.80
2018-06-02T09:07:14.382Z,24.90
2018-06-02T09:09:40.864Z,24.90
2018-06-02T09:12:07.275Z,24.90
2018-06-02T09:14:33.671Z,24.90
2018-06-02T09:17:00.112Z,25.00
2018-06-02T09:19:26.508Z,25.00
2018-06-02T09:21:53.663Z,25.00
2018-06-02T09:24:20.823Z,25.00
2018-06-02T09:26:47.244Z,25.00
2018-06-02T09:29:13.636Z,25.10
2018-06-02T09:31:40.018Z,25.20
2018-06-02T09:34:07.155Z,25.30
2018-06-02T09:36:33.556Z,25.20
2018-06-02T09:38:59.948Z,25.20
2018-06-02T09:41:26.346Z,25.30
2018-06-02T09:43:52.749Z,25.20
2018-06-02T09:46:19.147Z,25.20
2018-06-02T10:02:17.138Z,25.80
2018-06-02T10:04:43.593Z,25.80
2018-06-02T10:07:09.942Z,25.90
2018-06-02T10:09:36.317Z,26.00
2018-06-02T10:12:02.748Z,26.00
2018-06-02T10:14:29.132Z,26.00
2018-06-02T10:16:55.528Z,26.10
2018-06-02T10:19:21.951Z,26.20
2018-06-02T10:21:48.959Z,26.30
2018-06-02T10:24:16.090Z,26.20
2018-06-02T10:26:49.590Z,26.20
2018-06-02T10:29:16.744Z,25.50
2018-06-02T10:31:44.680Z,25.10
2018-06-02T10:34:11.113Z,25.10
2018-06-02T10:36:37.524Z,24.90
2018-06-02T10:39:04.016Z,24.70
2018-06-02T10:41:31.941Z,24.10
2018-06-02T10:43:59.139Z,24.00
2018-06-02T10:46:26.357Z,24.00
2018-06-02T10:48:53.763Z,24.00
2018-06-02T10:51:20.920Z,23.70
2018-06-02T10:53:48.055Z,23.60
2018-06-02T10:56:15.189Z,23.40
2018-06-02T10:58:41.580Z,23.40
2018-06-02T11:01:08.006Z,23.00
2018-06-02T11:03:34.433Z,22.60
2018-06-02T11:06:00.848Z,22.40
2018-06-02T11:08:27.982Z,22.10
2018-06-02T11:10:55.105Z,21.80
2018-06-02T11:13:21.502Z,21.80
2018-06-02T11:15:47.896Z,21.90
2018-06-02T11:18:14.288Z,21.90
2018-06-02T11:20:40.674Z,21.80
2018-06-02T11:23:07.078Z,21.80
2018-06-02T11:25:35.095Z,21.90
2018-06-02T11:28:01.535Z,21.90
2018-06-02T11:30:27.960Z,22.00
2018-06-02T11:32:54.434Z,22.00
2018-06-02T11:35:20.858Z,22.10
2018-06-02T11:37:47.283Z,22.10
2018-06-02T11:40:13.796Z,22.00
2018-06-02T11:42:40.224Z,22.00
2018-06-02T11:45:06.628Z,22.00
2018-06-02T11:47:33.023Z,22.10
2018-06-02T11:49:59.430Z,22.10
2018-06-02T11:52:25.874Z,22.10
2018-06-02T11:54:52.295Z,22.30
2018-06-02T11:57:18.710Z,22.50
2018-06-02T11:59:46.041Z,22.60
2018-06-02T12:02:12.519Z,22.60
2018-06-02T12:04:38.924Z,22.70
2018-06-02T12:07:06.083Z,23.20
2018-06-02T12:09:33.284Z,23.30
2018-06-02T12:11:59.698Z,23.30
2018-06-02T12:14:26.094Z,23.50
2018-06-02T12:16:53.250Z,24.20
2018-06-02T12:19:20.393Z,24.40
2018-06-02T12:21:47.539Z,24.50
2018-06-02T12:24:13.999Z,24.50
2018-06-02T12:26:40.381Z,24.30
2018-06-02T12:29:06.770Z,24.40
2018-06-02T12:31:33.162Z,24.40
2018-06-02T12:34:01.036Z,24.40
2018-06-02T12:36:27.486Z,24.40
2018-06-02T12:38:54.772Z,24.30
2018-06-02T12:41:21.328Z,24.20
2018-06-02T12:44:00.840Z,24.20
2018-06-02T12:46:40.328Z,24.00
2018-06-02T12:49:06.710Z,23.80
2018-06-02T12:51:33.099Z,23.70
2018-06-02T12:54:01.104Z,23.60
2018-06-02T12:56:27.585Z,23.60
2018-06-02T12:58:54.769Z,23.70
2018-06-02T13:01:21.899Z,23.80
2018-06-02T13:03:48.332Z,23.80
2018-06-02T13:06:16.216Z,24.00
2018-06-02T13:08:42.639Z,24.00
2018-06-02T13:11:09.039Z,24.10
2018-06-02T13:13:35.444Z,24.10
2018-06-02T13:16:01.891Z,24.10
2018-06-02T13:18:28.334Z,24.00
2018-06-02T13:20:54.767Z,24.00
2018-06-02T13:23:21.157Z,24.10
2018-06-02T13:25:48.336Z,24.10
2018-06-02T13:28:14.726Z,24.10
2018-06-02T13:30:41.114Z,24.10
2018-06-02T13:33:07.510Z,24.10
2018-06-02T13:35:34.650Z,24.00
2018-06-02T13:38:01.803Z,24.00
2018-06-02T13:40:29.051Z,24.10
2018-06-02T13:42:56.431Z,24.20
2018-06-02T13:45:22.807Z,24.20
2018-06-02T13:47:49.225Z,24.30
2018-06-02T13:50:16.214Z,24.30
2018-06-02T13:52:42.626Z,24.40
2018-06-02T13:55:09.004Z,24.40
2018-06-02T13:57:35.402Z,24.40
2018-06-02T14:00:02.915Z,24.40
2018-06-02T14:02:29.297Z,24.40
2018-06-02T14:04:57.163Z,24.40
2018-06-02T14:07:23.540Z,24.50
2018-06-02T14:09:49.939Z,24.40
2018-06-02T14:12:17.053Z,24.30
2018-06-02T14:14:43.449Z,24.30
2018-06-02T14:17:09.826Z,24.30
2018-06-02T14:19:36.201Z,24.40
2018-06-02T14:22:02.629Z,24.50
2018-06-02T14:24:29.040Z,24.40
2018-06-02T14:26:56.911Z,24.40
2018-06-02T14:29:23.315Z,24.30
2018-06-02T14:31:50.445Z,24.30
2018-06-02T14:34:17.579Z,24.30
2018-06-02T14:36:43.986Z,24.30
2018-06-02T14:39:11.116Z,24.10
2018-06-02T14:41:37.508Z,24.20
2018-06-02T14:44:03.949Z,24.20
2018-06-02T14:46:32.427Z,24.30
2018-06-02T14:48:58.837Z,24.30
2018-06-02T14:51:25.976Z,24.40
2018-06-02T14:53:52.370Z,24.40
2018-06-02T14:56:18.773Z,24.50
2018-06-02T14:58:45.230Z,24.70
2018-06-02T15:01:11.635Z,24.80
2018-06-02T15:03:38.170Z,25.00
2018-06-02T15:06:04.580Z,25.20
2018-06-02T15:08:30.968Z,25.20
2018-06-02T15:10:57.339Z,25.10
2018-06-02T15:13:24.460Z,24.90
2018-06-02T15:15:50.856Z,24.80
2018-06-02T15:18:17.248Z,24.60
2018-06-02T15:20:44.360Z,24.30
2018-06-02T15:23:12.246Z,24.20
2018-06-02T15:25:38.710Z,24.20
2018-06-02T15:28:05.112Z,24.00
2018-06-02T15:30:32.984Z,23.60
2018-06-02T15:33:00.129Z,23.40
2018-06-02T15:35:27.280Z,23.30
2018-06-02T15:37:53.671Z,23.30
2018-06-02T15:40:20.072Z,23.10
2018-06-02T15:42:46.471Z,23.00
2018-06-02T15:45:12.885Z,22.90
2018-06-02T15:47:39.274Z,22.80
2018-06-02T15:50:05.667Z,22.70
2018-06-02T15:52:32.038Z,22.70
2018-06-02T15:54:58.415Z,22.60
2018-06-02T15:57:24.880Z,22.60
2018-06-02T15:59:52.011Z,22.70
2018-06-02T16:02:18.409Z,22.70
2018-06-02T16:04:58.538Z,22.70
2018-06-02T16:07:25.720Z,22.70
2018-06-02T16:09:52.107Z,22.70
2018-06-02T16:12:19.381Z,22.70
2018-06-02T16:14:45.785Z,22.70
2018-06-02T16:17:12.926Z,22.70
2018-06-02T16:19:40.788Z,22.70
2018-06-02T16:22:07.277Z,22.70
2018-06-02T16:24:33.665Z,22.70
2018-06-02T16:27:00.047Z,22.70
2018-06-02T16:29:26.457Z,22.60
2018-06-02T16:31:53.589Z,22.60
2018-06-02T16:34:20.710Z,22.60
2018-06-02T16:36:47.116Z,22.60
2018-06-02T16:39:13.513Z,22.60
2018-06-02T16:41:40.471Z,22.70
2018-06-02T16:44:06.864Z,22.70
2018-06-02T16:46:33.257Z,22.80
2018-06-02T16:48:59.652Z,22.90
2018-06-02T16:51:26.782Z,23.20
2018-06-02T16:53:54.659Z,23.20
2018-06-02T16:56:22.537Z,23.30
2018-06-02T16:58:49.668Z,23.40
2018-06-02T17:01:16.965Z,23.60
2018-06-02T17:03:43.376Z,23.60
2018-06-02T17:06:10.523Z,23.80
2018-06-02T17:08:36.907Z,23.80
2018-06-02T17:11:03.313Z,24.00
2018-06-02T17:13:29.702Z,24.10
2018-06-02T17:16:10.547Z,24.20
2018-06-02T17:18:36.985Z,24.20
2018-06-02T17:21:03.404Z,24.20
2018-06-02T17:23:29.843Z,24.10
2018-06-02T17:25:56.223Z,24.30
2018-06-02T17:28:24.254Z,24.30
2018-06-02T17:30:50.644Z,24.30
2018-06-02T17:33:17.095Z,24.40
2018-06-02T17:35:43.497Z,24.20
2018-06-02T17:38:10.642Z,23.90
2018-06-02T17:40:37.774Z,23.70
2018-06-02T17:43:05.683Z,23.60
2018-06-02T17:45:32.044Z,23.60
2018-06-02T17:47:58.423Z,23.50
2018-06-02T17:50:24.810Z,23.40
2018-06-02T17:52:51.241Z,23.40
2018-06-02T17:55:17.651Z,23.40
2018-06-02T17:57:44.071Z,23.40
2018-06-02T18:00:10.471Z,23.40
2018-06-02T18:02:38.355Z,23.20
2018-06-02T18:05:05.531Z,23.20
2018-06-02T18:07:32.099Z,23.10
2018-06-02T18:09:58.504Z,23.10
2018-06-02T18:12:24.910Z,23.00
2018-06-02T18:14:52.055Z,22.70
2018-06-02T18:17:19.233Z,22.50
2018-06-02T18:19:45.639Z,22.50
2018-06-02T18:22:12.829Z,22.30
2018-06-02T18:24:39.253Z,22.30
2018-06-02T18:27:05.678Z,22.30
2018-06-02T18:29:32.934Z,22.20
2018-06-02T18:31:59.349Z,22.20
2018-06-02T18:34:26.640Z,22.30
2018-06-02T18:36:53.024Z,22.30
2018-06-02T18:39:19.413Z,22.30
2018-06-02T18:41:46.416Z,22.30
2018-06-02T18:44:13.587Z,22.10
2018-06-02T18:46:39.996Z,22.10
2018-06-02T18:49:07.128Z,22.00
2018-06-02T18:51:33.527Z,22.00
2018-06-02T18:53:59.955Z,22.00
2018-06-02T18:56:26.353Z,22.00
2018-06-02T18:58:53.466Z,21.70
2018-06-02T19:01:19.884Z,21.70
2018-06-02T19:03:47.069Z,21.60
2018-06-02T19:06:14.260Z,21.50
2018-06-02T19:08:42.528Z,21.50
2018-06-02T19:11:09.022Z,21.60
2018-06-02T19:13:36.184Z,21.40
2018-06-02T19:16:03.448Z,21.40
2018-06-02T19:18:29.893Z,21.30
2018-06-02T19:20:56.294Z,21.20
2018-06-02T19:23:22.693Z,21.20
2018-06-02T19:25:49.088Z,21.10
2018-06-02T19:28:15.473Z,21.00
2018-06-02T19:30:42.588Z,20.90
2018-06-02T19:33:08.990Z,20.80
2018-06-02T19:35:36.126Z,20.90
2018-06-02T19:38:03.354Z,20.80
2018-06-02T19:40:29.885Z,20.80
2018-06-02T19:42:56.303Z,20.80
2018-06-02T19:45:22.756Z,20.60
2018-06-02T19:47:49.187Z,20.60
2018-06-02T19:50:15.604Z,20.60
2018-06-02T19:52:42.029Z,20.60
2018-06-02T19:55:08.454Z,20.60
2018-06-02T19:57:34.851Z,20.50
2018-06-02T20:00:01.990Z,20.20
2018-06-02T20:02:28.411Z,20.20
2018-06-02T20:04:54.831Z,20.10
2018-06-02T20:07:21.248Z,20.00
2018-06-02T20:09:47.655Z,20.10
2018-06-02T20:12:14.115Z,19.90
2018-06-02T20:14:40.521Z,19.90
2018-06-02T20:17:06.971Z,19.80
2018-06-02T20:19:33.346Z,19.80
2018-06-02T20:21:59.810Z,19.70
2018-06-02T20:24:26.183Z,19.70
2018-06-02T20:26:52.578Z,19.60
2018-06-02T20:29:19.888Z,19.70
2018-06-02T20:31:46.277Z,19.70
2018-06-02T20:34:12.679Z,19.80
2018-06-02T20:36:39.059Z,19.70
2018-06-02T20:39:05.486Z,19.70
2018-06-02T20:41:31.886Z,19.60
2018-06-02T20:43:59.044Z,19.70
2018-06-02T20:46:26.169Z,19.60
2018-06-02T20:48:52.644Z,19.60
2018-06-02T20:51:19.056Z,19.50
2018-06-02T20:53:46.199Z,19.70
2018-06-02T20:56:13.344Z,19.60
2018-06-02T20:58:39.744Z,19.60
2018-06-02T21:01:06.163Z,19.60
2018-06-02T21:03:32.576Z,19.50
2018-06-02T21:05:58.980Z,19.60
2018-06-02T21:08:26.137Z,19.60
2018-06-02T21:10:52.546Z,19.60
2018-06-02T21:13:18.943Z,19.50
2018-06-02T21:15:47.511Z,19.50
2018-06-02T21:18:13.900Z,19.50
2018-06-02T21:20:40.291Z,19.50
2018-06-02T21:23:06.698Z,19.50
2018-06-02T21:25:33.105Z,19.50
2018-06-02T21:28:00.242Z,19.40
2018-06-02T21:30:28.139Z,19.40
2018-06-02T21:32:55.266Z,19.50
2018-06-02T21:35:21.666Z,19.50
2018-06-02T21:37:48.062Z,19.50
2018-06-02T21:40:14.443Z,19.50
2018-06-02T21:42:40.836Z,19.50
2018-06-02T21:45:07.264Z,19.50
2018-06-02T21:47:33.693Z,19.40
2018-06-02T21:50:00.089Z,19.40
2018-06-02T21:52:27.325Z,19.30
2018-06-02T21:54:53.732Z,19.30
2018-06-02T21:57:20.171Z,19.30
2018-06-02T21:59:46.587Z,19.40
2018-06-02T22:02:12.974Z,19.30
2018-06-02T22:04:39.407Z,19.30
2018-06-02T22:07:05.809Z,19.30
2018-06-02T22:09:32.247Z,19.30
2018-06-02T22:11:58.679Z,19.30
2018-06-02T22:14:25.875Z,19.20
2018-06-02T22:16:53.114Z,19.20
2018-06-02T22:19:20.298Z,19.20
2018-06-02T22:21:46.705Z,19.20
2018-06-02T22:24:13.843Z,19.10
2018-06-02T22:26:40.311Z,19.10
2018-06-02T22:29:06.724Z,19.00
2018-06-02T22:31:33.855Z,18.90
2018-06-02T22:34:00.243Z,18.80
2018-06-02T22:36:26.650Z,18.80
2018-06-02T22:38:53.804Z,18.80
2018-06-02T22:41:20.202Z,18.80
2018-06-02T22:43:46.603Z,18.90
2018-06-02T22:46:13.000Z,18.80
2018-06-02T22:48:39.394Z,18.80
2018-06-02T22:51:05.863Z,18.70
2018-06-02T22:53:33.032Z,18.60
2018-06-02T22:55:59.755Z,18.60
2018-06-02T22:58:26.211Z,18.60
2018-06-02T23:00:52.599Z,18.70
2018-06-02T23:03:19.789Z,18.50
2018-06-02T23:05:46.229Z,18.40
2018-06-02T23:08:12.756Z,18.40
2018-06-02T23:10:39.153Z,18.40
2018-06-02T23:13:05.537Z,18.40
2018-06-02T23:15:31.953Z,18.50
2018-06-02T23:17:58.416Z,18.60
2018-06-02T23:20:24.822Z,18.60
2018-06-02T23:22:51.214Z,18.60
2018-06-02T23:25:18.338Z,18.40
2018-06-02T23:27:44.723Z,18.40
2018-06-02T23:30:11.117Z,18.30
2018-06-02T23:32:37.507Z,18.30
2018-06-02T23:35:03.938Z,18.40
2018-06-02T23:37:30.337Z,18.30
2018-06-02T23:39:57.485Z,18.30
2018-06-02T23:42:24.630Z,18.40
2018-06-02T23:44:51.021Z,18.40
2018-06-02T23:47:17.420Z,18.40
2018-06-02T23:49:43.808Z,18.30
2018-06-02T23:52:10.215Z,18.30
2018-06-02T23:54:36.641Z,18.30
2018-06-02T23:57:03.046Z,18.10
2018-06-02T23:59:30.169Z,18.20
